METAR Data
IDs: Format: Raw Decoded Include TAF

Data at: 1003 UTC 18 Jan 2022

KMDS 180915Z AUTO 18008KT 10SM CLR M03/M03 A2959 RMK AO2